Time;durP1;ratioP1;P1;durP2;ratioP2;P2;SDS_P1;SDS_P2;PMS_P1;PMS_P2;Temp;Humidity;BMP_temperature;BMP_pressure;BME280_temperature;BME280_humidity;BME280_pressure;Samples;Min_cycle;Max_cycle;Signal;HPM_P1;HPM_P2
2021/11/14 00:00:21;;;;;;;;;;;;;;;5.58;81.17;98425.63;1802184;79;20917;-94
2021/11/14 00:02:49;;;;;;;;;;;;;;;5.62;81.17;98427.16;1800970;79;21124;-94
2021/11/14 00:05:15;;;;;;;;;;;;;;;5.63;81.23;98426.24;1801859;79;20891;-94
2021/11/14 00:07:41;;;;;;;;;;;;;;;5.58;81.28;98419.59;1802204;79;20252;-93
2021/11/14 00:10:07;;;;;;;;;;;;;;;5.58;81.30;98428.69;1802147;79;20233;-93
2021/11/14 00:12:33;;;;;;;;;;;;;;;5.55;81.39;98426.25;1801932;79;21982;-93
2021/11/14 00:14:59;;;;;;;;;;;;;;;5.57;81.43;98421.80;1802149;79;26004;-93
2021/11/14 00:17:27;;;;;;;;;;;;;;;5.55;81.47;98424.50;1801993;79;20815;-92
2021/11/14 00:19:53;;;;;;;;;;;;;;;5.56;81.56;98424.05;1801997;79;20496;-93
2021/11/14 00:22:19;;;;;;;;;;;;;;;5.56;81.63;98426.64;1802397;79;20225;-93
2021/11/14 00:24:45;;;;;;;;;;;;;;;5.57;81.69;98424.41;1802075;79;22001;-94
2021/11/14 00:27:11;;;;;;;;;;;;;;;5.63;81.76;98426.70;1801733;79;25988;-94
2021/11/14 00:29:39;;;;;;;;;;;;;;;5.67;81.83;98428.24;1801781;79;24491;-92
2021/11/14 00:32:06;;;;;;;;;;;;;;;5.67;81.92;98427.79;1802476;79;20202;-92
2021/11/14 00:34:34;;;;;;;;;;;;;;;5.77;82.00;98426.41;1802051;79;24951;-92
2021/11/14 00:37:00;;;;;;;;;;;;;;;5.80;82.06;98430.13;1781599;79;23277;-93
2021/11/14 00:39:26;;;;;;;;;;;;;;;5.78;82.11;98432.44;1802050;79;25943;-92
2021/11/14 00:45:02;;;;;;;;;;;;;;;5.81;82.22;98434.87;1801836;79;20292;-94
2021/11/14 00:47:28;;;;;;;;;;;;;;;5.83;82.30;98428.70;1801660;79;25736;-92
2021/11/14 00:49:54;;;;;;;;;;;;;;;5.81;82.33;98433.57;1802274;79;20237;-92
2021/11/14 00:52:20;;;;;;;;;;;;;;;5.82;82.37;98435.25;1801631;79;21753;-94
2021/11/14 00:54:46;;;;;;;;;;;;;;;5.88;82.41;98430.63;1807866;79;24595;-93
2021/11/14 00:57:12;;;;;;;;;;;;;;;5.82;82.44;98436.09;1785248;79;20214;-94
2021/11/14 00:59:38;;;;;;;;;;;;;;;5.80;82.46;98428.83;1820380;79;25003;-93
2021/11/14 01:02:04;;;;;;;;;;;;;;;5.80;82.49;98431.88;1819859;79;20245;-93
2021/11/14 01:04:30;;;;;;;;;;;;;;;5.91;82.54;98432.67;1819984;79;26058;-93
2021/11/14 01:06:57;;;;;;;;;;;;;;;5.88;82.60;98432.38;1819386;79;21589;-93
2021/11/14 01:09:23;;;;;;;;;;;;;;;5.86;82.62;98434.17;1819852;79;20166;-94
2021/11/14 01:11:49;;;;;;;;;;;;;;;6.02;82.67;98436.86;1819609;79;24940;-93
2021/11/14 01:14:15;;;;;;;;;;;;;;;6.01;82.71;98434.72;1819861;79;20800;-93
2021/11/14 01:16:42;;;;;;;;;;;;;;;6.01;82.75;98433.88;1819783;79;25936;-91
2021/11/14 01:19:08;;;;;;;;;;;;;;;6.08;82.79;98441.73;1819994;79;24248;-92
2021/11/14 01:21:34;;;;;;;;;;;;;;;6.10;82.84;98439.91;1819599;79;20405;-92
2021/11/14 01:24:00;;;;;;;;;;;;;;;6.03;82.86;98438.54;1819613;79;20845;-92
2021/11/14 01:26:28;;;;;;;;;;;;;;;6.00;82.86;98440.83;1819743;79;22704;-92
2021/11/14 01:28:54;;;;;;;;;;;;;;;6.05;82.88;98443.21;1819585;79;25938;-92
2021/11/14 01:31:20;;;;;;;;;;;;;;;6.19;82.91;98440.27;1792364;79;20859;-93
2021/11/14 01:33:46;;;;;;;;;;;;;;;6.17;82.93;98438.20;1819770;79;20170;-92
2021/11/14 01:36:12;;;;;;;;;;;;;;;6.12;82.95;98441.95;1819471;79;20213;-94
2021/11/14 01:38:40;;;;;;;;;;;;;;;5.98;82.94;98442.68;1818683;77;20158;-94
2021/11/14 01:41:08;;;;;;;;;;;;;;;5.87;82.93;98438.03;1820024;79;20988;-93
2021/11/14 01:43:36;;;;;;;;;;;;;;;5.85;82.87;98437.69;1819838;79;24468;-93
2021/11/14 01:46:03;;;;;;;;;;;;;;;5.95;82.91;98438.08;1819731;79;20301;-92
2021/11/14 01:48:29;;;;;;;;;;;;;;;6.04;82.94;98433.28;1819300;79;24937;-92
2021/11/14 01:50:55;;;;;;;;;;;;;;;6.01;82.96;98437.77;1819741;79;22038;-92
2021/11/14 01:53:22;;;;;;;;;;;;;;;5.92;82.98;98432.59;1819984;79;26004;-92
2021/11/14 01:55:48;;;;;;;;;;;;;;;6.01;83.00;98437.77;1819501;79;24445;-92
2021/11/14 01:58:16;;;;;;;;;;;;;;;6.01;83.04;98433.88;1811418;79;20303;-91
2021/11/14 02:00:44;;;;;;;;;;;;;;;6.00;83.07;98438.72;1802242;79;24997;-91
2021/11/14 02:03:10;;;;;;;;;;;;;;;6.05;83.09;98438.02;1780361;79;22110;-92
2021/11/14 02:05:36;;;;;;;;;;;;;;;6.05;83.12;98436.72;1802347;79;26866;-91
2021/11/14 02:08:03;;;;;;;;;;;;;;;6.07;83.17;98435.70;1802196;79;24578;-92
2021/11/14 02:10:30;;;;;;;;;;;;;;;6.13;83.20;98436.69;1802175;79;20250;-91
2021/11/14 02:12:57;;;;;;;;;;;;;;;6.21;83.24;98441.50;1802085;79;24953;-92
2021/11/14 02:15:23;;;;;;;;;;;;;;;6.23;83.29;98439.19;1802333;79;22775;-91
2021/11/14 02:17:49;;;;;;;;;;;;;;;6.19;83.28;98436.83;1802426;79;21005;-92
2021/11/14 02:20:16;;;;;;;;;;;;;;;6.13;83.29;98437.98;1802145;79;24396;-92
2021/11/14 02:22:42;;;;;;;;;;;;;;;6.11;83.26;98434.61;1802487;79;20206;-93
2021/11/14 02:25:09;;;;;;;;;;;;;;;6.13;83.28;98439.28;1808286;79;24929;-92
2021/11/14 02:27:35;;;;;;;;;;;;;;;6.27;83.32;98441.99;1802179;79;22557;-93
2021/11/14 02:30:03;;;;;;;;;;;;;;;6.29;83.34;98437.56;1802196;79;25638;-93
2021/11/14 02:32:31;;;;;;;;;;;;;;;6.26;83.34;98444.69;1802341;79;24435;-94
2021/11/14 02:34:58;;;;;;;;;;;;;;;6.24;83.36;98442.16;1796165;79;20162;-92
2021/11/14 02:37:25;;;;;;;;;;;;;;;6.24;83.36;98449.13;1801896;79;25032;-93
2021/11/14 02:39:51;;;;;;;;;;;;;;;6.22;83.35;98446.59;1802107;79;20229;-94
2021/11/14 02:42:17;;;;;;;;;;;;;;;6.22;83.36;98448.34;1802120;79;25962;-94
2021/11/14 02:44:43;;;;;;;;;;;;;;;6.17;83.36;98444.69;1802592;79;20300;-93
2021/11/14 02:47:09;;;;;;;;;;;;;;;6.14;83.32;98444.02;1802007;79;20158;-94
2021/11/14 02:49:35;;;;;;;;;;;;;;;6.11;83.31;98446.30;1802266;79;24994;-92
2021/11/14 02:52:02;;;;;;;;;;;;;;;6.10;83.31;98444.66;1802265;79;22013;-93
2021/11/14 02:54:29;;;;;;;;;;;;;;;6.18;83.32;98447.68;1801820;79;26840;-94
2021/11/14 02:56:55;;;;;;;;;;;;;;;6.21;83.35;98445.39;1801902;79;24516;-92
2021/11/14 02:59:21;;;;;;;;;;;;;;;6.21;83.35;98453.19;1795491;79;20260;-94
2021/11/14 03:01:48;;;;;;;;;;;;;;;6.27;83.37;98454.98;1800040;79;25351;-95
2021/11/14 03:04:17;;;;;;;;;;;;;;;6.38;83.39;98455.75;1794364;80;21914;-92
2021/11/14 03:06:44;;;;;;;;;;;;;;;6.30;83.41;98457.90;1794616;79;26029;-93
2021/11/14 03:09:10;;;;;;;;;;;;;;;6.21;83.37;98460.53;1794136;79;24580;-92
2021/11/14 03:11:36;;;;;;;;;;;;;;;6.16;83.34;98464.28;1794218;79;20206;-93
2021/11/14 03:17:24;;;;;;;;;;;;;;;6.35;83.35;98469.34;1793773;80;20154;-93
2021/11/14 03:19:51;;;;;;;;;;;;;;;6.33;83.38;98470.72;1794175;80;26018;-93
2021/11/14 03:22:17;;;;;;;;;;;;;;;6.38;83.40;98477.00;1794225;79;24399;-92
2021/11/14 03:24:44;;;;;;;;;;;;;;;6.39;83.41;98476.06;1793991;79;20544;-93
2021/11/14 03:27:10;;;;;;;;;;;;;;;6.37;83.42;98475.31;1794550;80;25093;-93
2021/11/14 03:29:36;;;;;;;;;;;;;;;6.33;83.39;98473.80;1794260;80;22009;-92
2021/11/14 03:32:04;;;;;;;;;;;;;;;6.35;83.38;98477.14;1794218;80;25919;-92
2021/11/14 03:34:31;;;;;;;;;;;;;;;6.40;83.39;98477.74;1794107;80;24458;-94
2021/11/14 03:36:58;;;;;;;;;;;;;;;6.32;83.37;98479.46;1793971;80;20492;-93
2021/11/14 03:39:24;;;;;;;;;;;;;;;6.28;83.34;98482.66;1793933;80;24945;-92
2021/11/14 03:41:54;;;;;;;;;;;;;;;6.36;83.35;98484.87;1794311;80;20225;-93
2021/11/14 03:44:17;;;;;;;;;;;;;;;6.41;83.37;98489.37;1794432;79;26085;-92
2021/11/14 03:46:43;;;;;;;;;;;;;;;6.46;83.38;98491.72;1794259;79;20959;-93
2021/11/14 03:49:09;;;;;;;;;;;;;;;6.49;83.39;98495.48;1794272;80;20324;-94
2021/11/14 03:51:35;;;;;;;;;;;;;;;6.51;83.38;98498.36;1794143;80;20714;-94
2021/11/14 03:54:01;;;;;;;;;;;;;;;6.47;83.39;98496.01;1794033;79;21951;-92
2021/11/14 03:56:29;;;;;;;;;;;;;;;6.38;83.36;98498.64;1794127;79;25957;-94
2021/11/14 03:58:55;;;;;;;;;;;;;;;6.41;83.34;98497.63;1797880;79;24534;-95
2021/11/14 04:01:22;;;;;;;;;;;;;;;6.39;83.30;98496.85;1801780;79;20376;-94
2021/11/14 04:03:50;;;;;;;;;;;;;;;6.33;83.29;98498.50;1781818;79;25019;-93
2021/11/14 04:06:16;;;;;;;;;;;;;;;6.40;83.30;98498.08;1802236;79;22093;-93
2021/11/14 04:08:43;;;;;;;;;;;;;;;6.38;83.27;98499.94;1802153;79;26051;-93
2021/11/14 04:11:09;;;;;;;;;;;;;;;6.30;83.27;98499.02;1802335;79;24378;-94
2021/11/14 04:13:35;;;;;;;;;;;;;;;6.27;83.25;98502.25;1802147;79;20284;-92
2021/11/14 04:16:03;;;;;;;;;;;;;;;6.27;83.24;98496.56;1802366;79;25108;-94
2021/11/14 04:18:29;;;;;;;;;;;;;;;6.24;83.23;98495.44;1781669;79;22167;-92
2021/11/14 04:20:55;;;;;;;;;;;;;;;6.18;83.21;98498.34;1802079;79;21203;-93
2021/11/14 04:23:22;;;;;;;;;;;;;;;6.18;83.21;98502.24;1802065;79;24684;-93
2021/11/14 04:25:49;;;;;;;;;;;;;;;6.18;83.18;98502.24;1802156;79;20194;-92
2021/11/14 04:28:16;;;;;;;;;;;;;;;6.22;83.22;98504.22;1801831;79;24860;-93
2021/11/14 04:30:43;;;;;;;;;;;;;;;6.24;83.23;98500.64;1802060;79;21913;-93
2021/11/14 04:33:09;;;;;;;;;;;;;;;6.26;83.23;98507.91;1801879;79;26664;-92
2021/11/14 04:35:35;;;;;;;;;;;;;;;6.26;83.25;98507.06;1802204;79;20421;-93
2021/11/14 04:38:01;;;;;;;;;;;;;;;6.34;83.26;98504.05;1802134;79;20264;-93
2021/11/14 04:40:29;;;;;;;;;;;;;;;6.36;83.28;98508.72;1801889;79;24945;-94
2021/11/14 04:42:55;;;;;;;;;;;;;;;6.37;83.29;98509.95;1781955;79;22034;-92
2021/11/14 04:45:22;;;;;;;;;;;;;;;6.34;83.26;98515.75;1802052;79;26269;-93
2021/11/14 04:47:48;;;;;;;;;;;;;;;6.49;83.28;98511.08;1801854;79;24339;-92
2021/11/14 04:50:16;;;;;;;;;;;;;;;6.50;83.27;98512.73;1802218;79;20189;-93
2021/11/14 04:52:42;;;;;;;;;;;;;;;6.45;83.27;98517.33;1801950;79;24934;-94
2021/11/14 04:55:08;;;;;;;;;;;;;;;6.45;83.25;98515.58;1801933;79;21875;-93
2021/11/14 04:57:35;;;;;;;;;;;;;;;6.48;83.25;98522.39;1802232;79;25918;-93
2021/11/14 05:00:01;;;;;;;;;;;;;;;6.50;83.24;98520.53;1801506;79;24534;-92
2021/11/14 05:02:27;;;;;;;;;;;;;;;6.46;83.23;98528.11;1802149;79;20170;-92
2021/11/14 05:04:53;;;;;;;;;;;;;;;6.35;83.20;98527.83;1801891;79;20209;-92
2021/11/14 05:07:19;;;;;;;;;;;;;;;6.24;83.16;98524.02;1802007;79;22188;-92
2021/11/14 05:09:45;;;;;;;;;;;;;;;6.18;83.12;98533.42;1808368;78;21609;-94
2021/11/14 05:12:11;;;;;;;;;;;;;;;6.12;83.08;98535.03;1802098;79;24314;-92
2021/11/14 05:14:37;;;;;;;;;;;;;;;6.09;83.06;98535.20;1802222;79;20834;-93
2021/11/14 05:17:03;;;;;;;;;;;;;;;6.06;83.07;98534.03;1802249;79;25554;-93
2021/11/14 05:19:29;;;;;;;;;;;;;;;6.01;83.05;98539.08;1802126;79;21928;-93
2021/11/14 05:21:55;;;;;;;;;;;;;;;5.97;83.04;98546.64;1802280;79;20858;-93
2021/11/14 05:24:21;;;;;;;;;;;;;;;5.94;83.02;98549.41;1801570;79;24467;-93
2021/11/14 05:26:47;;;;;;;;;;;;;;;5.91;83.02;98552.14;1808313;79;20221;-95
2021/11/14 05:29:13;;;;;;;;;;;;;;;5.88;83.01;98551.39;1801857;79;24931;-94
2021/11/14 05:31:39;;;;;;;;;;;;;;;5.86;83.02;98549.28;1802135;79;20859;-92
2021/11/14 05:34:05;;;;;;;;;;;;;;;5.84;83.04;98557.59;1802252;79;21001;-93
2021/11/14 05:36:31;;;;;;;;;;;;;;;5.82;83.05;98555.55;1802462;79;20333;-93
2021/11/14 05:38:57;;;;;;;;;;;;;;;5.90;83.09;98556.48;1801959;79;20158;-93
2021/11/14 05:44:45;;;;;;;;;;;;;;;5.92;83.17;98557.27;1801755;79;20468;-92
2021/11/14 05:47:11;;;;;;;;;;;;;;;5.91;83.21;98569.02;1802290;79;20843;-93
2021/11/14 05:49:39;;;;;;;;;;;;;;;5.88;83.23;98566.98;1801586;79;20174;-93
2021/11/14 05:52:05;;;;;;;;;;;;;;;5.94;83.26;98578.83;1801982;79;20174;-94
2021/11/14 05:54:32;;;;;;;;;;;;;;;6.04;83.29;98581.80;1801987;79;24870;-95
2021/11/14 05:56:58;;;;;;;;;;;;;;;6.01;83.32;98581.48;1802551;79;22013;-93
2021/11/14 05:59:47;;;;;;;;;;;;;;;6.13;83.36;98580.88;1809900;79;26036;-94
2021/11/14 06:05:26;;;;;;;;;;;;;;;6.42;83.44;98598.09;1819501;79;20241;-93
2021/11/14 06:07:53;;;;;;;;;;;;;;;6.46;83.49;98596.55;1819291;79;25217;-92
2021/11/14 06:10:19;;;;;;;;;;;;;;;6.43;83.52;98603.67;1819757;79;21878;-92
2021/11/14 06:12:46;;;;;;;;;;;;;;;6.39;83.54;98603.42;1819799;79;25956;-94
2021/11/14 06:15:13;;;;;;;;;;;;;;;6.34;83.54;98598.45;1820026;79;24712;-94
2021/11/14 06:17:39;;;;;;;;;;;;;;;6.43;83.54;98606.27;1792502;79;20162;-93
2021/11/14 06:20:06;;;;;;;;;;;;;;;6.50;83.55;98605.86;1819260;79;25891;-93
2021/11/14 06:22:34;;;;;;;;;;;;;;;6.55;83.55;98609.52;1820303;79;21964;-93
2021/11/14 06:25:00;;;;;;;;;;;;;;;6.57;83.55;98613.75;1818240;79;25977;-94
2021/11/14 06:27:26;;;;;;;;;;;;;;;6.61;83.54;98615.27;1819338;77;20469;-92
2021/11/14 06:29:52;;;;;;;;;;;;;;;6.62;83.52;98622.16;1819844;79;20296;-92
2021/11/14 06:32:18;;;;;;;;;;;;;;;6.65;83.52;98627.67;1819632;79;20229;-92
2021/11/14 06:34:45;;;;;;;;;;;;;;;6.52;83.48;98627.89;1819630;79;22070;-93
2021/11/14 06:37:12;;;;;;;;;;;;;;;6.39;83.43;98633.31;1819631;79;25926;-92
2021/11/14 06:39:39;;;;;;;;;;;;;;;6.27;83.38;98634.30;1820068;79;24389;-93
2021/11/14 06:45:26;;;;;;;;;;;;;;;6.26;83.29;98633.95;1819690;79;21093;-93
2021/11/14 06:47:52;;;;;;;;;;;;;;;6.37;83.26;98641.21;1819670;79;21936;-94
2021/11/14 06:50:18;;;;;;;;;;;;;;;6.39;83.26;98646.31;1819800;79;26111;-92
2021/11/14 06:52:45;;;;;;;;;;;;;;;6.47;83.28;98646.78;1792390;79;20276;-93
2021/11/14 06:55:12;;;;;;;;;;;;;;;6.57;83.28;98655.80;1819541;79;20343;-93
2021/11/14 06:57:38;;;;;;;;;;;;;;;6.57;83.29;98655.34;1820273;79;24963;-92
2021/11/14 07:00:09;;;;;;;;;;;;;;;6.62;83.32;98663.75;1808552;79;20213;-94
2021/11/14 07:02:35;;;;;;;;;;;;;;;6.68;83.32;98666.51;1808225;79;24859;-93
2021/11/14 07:05:01;;;;;;;;;;;;;;;6.58;83.30;98662.69;1802215;79;24174;-93
2021/11/14 07:07:27;;;;;;;;;;;;;;;6.52;83.28;98666.89;1802321;79;20245;-93
2021/11/14 07:09:53;;;;;;;;;;;;;;;6.55;83.27;98668.03;1802189;79;20221;-93
2021/11/14 07:12:23;;;;;;;;;;;;;;;6.51;83.27;98668.65;1802770;79;20276;-93
2021/11/14 07:14:47;;;;;;;;;;;;;;;6.47;83.28;98668.88;1802814;79;26021;-92
2021/11/14 07:17:15;;;;;;;;;;;;;;;6.40;83.26;98669.64;1801994;79;24587;-94
2021/11/14 07:19:41;;;;;;;;;;;;;;;6.45;83.27;98672.84;1802349;79;20182;-93
2021/11/14 07:25:29;;;;;;;;;;;;;;;6.51;83.28;98670.41;1801970;79;20158;-94
2021/11/14 07:27:55;;;;;;;;;;;;;;;6.43;83.28;98672.56;1802086;79;26025;-93
2021/11/14 07:30:22;;;;;;;;;;;;;;;6.37;83.26;98670.26;1802115;79;24587;-94
2021/11/14 07:32:49;;;;;;;;;;;;;;;6.32;83.24;98665.29;1801970;79;20464;-92
2021/11/14 07:35:17;;;;;;;;;;;;;;;6.33;83.24;98668.73;1808385;79;25115;-93
2021/11/14 07:37:43;;;;;;;;;;;;;;;6.53;83.28;98671.18;1802018;79;21989;-93
2021/11/14 07:40:10;;;;;;;;;;;;;;;6.68;83.31;98678.21;1802156;79;25956;-94
2021/11/14 07:42:37;;;;;;;;;;;;;;;6.81;83.36;98682.34;1801910;79;24313;-93
2021/11/14 07:45:05;;;;;;;;;;;;;;;6.78;83.40;98683.33;1801828;79;20292;-95
2021/11/14 07:47:31;;;;;;;;;;;;;;;6.84;83.41;98683.48;1801930;79;25001;-94
2021/11/14 07:49:57;;;;;;;;;;;;;;;6.84;83.43;98683.48;1801745;79;21935;-93
2021/11/14 07:52:24;;;;;;;;;;;;;;;6.93;83.47;98684.30;1781845;79;26176;-94
2021/11/14 07:54:51;;;;;;;;;;;;;;;7.03;83.46;98686.38;1802036;79;25252;-94
2021/11/14 07:57:17;;;;;;;;;;;;;;;7.14;83.46;98686.67;1802199;79;20165;-93
2021/11/14 07:59:43;;;;;;;;;;;;;;;7.24;83.44;98689.63;1801791;79;25291;-94
2021/11/14 08:02:09;;;;;;;;;;;;;;;7.29;83.44;98685.02;1802153;79;20248;-93
2021/11/14 08:04:35;;;;;;;;;;;;;;;7.30;83.40;98683.26;1801678;79;26342;-94
2021/11/14 08:07:02;;;;;;;;;;;;;;;7.30;83.37;98684.56;1802100;79;20252;-94
2021/11/14 08:09:29;;;;;;;;;;;;;;;7.21;83.35;98688.92;1802031;79;20174;-93
2021/11/14 08:11:55;;;;;;;;;;;;;;;7.19;83.31;98692.09;1802147;79;24971;-93
2021/11/14 08:14:21;;;;;;;;;;;;;;;7.25;83.24;98691.77;1801899;79;20382;-94
2021/11/14 08:16:47;;;;;;;;;;;;;;;7.33;83.19;98700.84;1781715;79;25940;-91
2021/11/14 08:19:13;;;;;;;;;;;;;;;7.35;83.14;98700.78;1801993;79;25223;-93
2021/11/14 08:21:39;;;;;;;;;;;;;;;7.27;83.11;98704.22;1802177;79;20182;-93
2021/11/14 08:24:06;;;;;;;;;;;;;;;7.27;83.07;98707.67;1802218;79;25779;-92
2021/11/14 08:26:32;;;;;;;;;;;;;;;7.31;83.05;98705.77;1802493;79;21936;-92
2021/11/14 08:28:58;;;;;;;;;;;;;;;7.33;83.00;98705.21;1802266;79;25931;-92
2021/11/14 08:31:25;;;;;;;;;;;;;;;7.34;82.97;98704.30;1801834;79;24405;-94
2021/11/14 08:33:51;;;;;;;;;;;;;;;7.34;82.91;98708.20;1802104;79;20244;-93
2021/11/14 08:36:17;;;;;;;;;;;;;;;7.29;82.87;98709.75;1801997;79;20697;-92
2021/11/14 08:38:44;;;;;;;;;;;;;;;7.25;82.80;98706.09;1801934;79;22023;-92
2021/11/14 08:41:10;;;;;;;;;;;;;;;7.24;82.76;98701.80;1801902;79;25971;-92
2021/11/14 08:43:38;;;;;;;;;;;;;;;7.23;82.69;98712.66;1801799;79;25163;-92
2021/11/14 08:46:07;;;;;;;;;;;;;;;7.27;82.63;98711.58;1801964;79;20182;-93
2021/11/14 08:48:34;;;;;;;;;;;;;;;7.28;82.57;98716.33;1802301;79;24960;-93
2021/11/14 08:51:00;;;;;;;;;;;;;;;7.31;82.53;98718.78;1802015;79;21886;-94
2021/11/14 08:53:26;;;;;;;;;;;;;;;7.36;82.48;98712.87;1802396;79;21041;-92
2021/11/14 08:55:53;;;;;;;;;;;;;;;7.33;82.46;98715.16;1802187;79;20265;-93
2021/11/14 08:58:19;;;;;;;;;;;;;;;7.22;82.41;98723.15;1802205;79;20362;-93
2021/11/14 09:00:46;;;;;;;;;;;;;;;7.13;82.36;98724.47;1813212;79;25129;-95
2021/11/14 09:03:12;;;;;;;;;;;;;;;7.06;82.30;98724.40;1819776;79;23002;-94
2021/11/14 09:05:38;;;;;;;;;;;;;;;7.10;82.25;98728.06;1819400;79;26139;-92
2021/11/14 09:08:06;;;;;;;;;;;;;;;7.10;82.25;98736.33;1820002;79;20232;-91
2021/11/14 09:10:33;;;;;;;;;;;;;;;7.10;82.22;98731.12;1819994;79;20186;-93
2021/11/14 09:12:59;;;;;;;;;;;;;;;7.11;82.21;98727.15;1819716;79;25063;-94
2021/11/14 09:15:26;;;;;;;;;;;;;;;7.12;82.18;98731.89;1819704;79;22108;-92
2021/11/14 09:17:53;;;;;;;;;;;;;;;7.21;82.17;98734.47;1819095;79;27317;-94
2021/11/14 09:20:21;;;;;;;;;;;;;;;7.19;82.13;98734.58;1819708;79;25236;-93
2021/11/14 09:22:47;;;;;;;;;;;;;;;7.29;82.12;98732.33;1818854;79;20246;-94
2021/11/14 09:25:14;;;;;;;;;;;;;;;7.41;82.08;98730.40;1818661;79;24965;-93
2021/11/14 09:27:40;;;;;;;;;;;;;;;7.43;82.04;98741.09;1818585;79;21251;-95
2021/11/14 09:30:07;;;;;;;;;;;;;;;7.46;82.00;98733.14;1819966;79;25904;-94
2021/11/14 09:32:33;;;;;;;;;;;;;;;7.53;81.93;98738.84;1819796;79;24686;-93
2021/11/14 09:35:00;;;;;;;;;;;;;;;7.53;81.87;98742.30;1819584;79;20296;-94
2021/11/14 09:37:26;;;;;;;;;;;;;;;7.56;81.81;98742.15;1819869;79;24949;-93
2021/11/14 09:39:52;;;;;;;;;;;;;;;7.56;81.75;98742.15;1819762;79;20807;-94
2021/11/14 09:42:19;;;;;;;;;;;;;;;7.60;81.69;98746.72;1819816;79;25926;-94
2021/11/14 09:44:45;;;;;;;;;;;;;;;7.61;81.62;98748.41;1819759;79;24441;-95
2021/11/14 09:47:13;;;;;;;;;;;;;;;7.64;81.55;98746.13;1820151;79;20166;-93
2021/11/14 09:49:39;;;;;;;;;;;;;;;7.69;81.46;98743.63;1819988;79;24969;-93
2021/11/14 09:55:30;;;;;;;;;;;;;;;7.73;81.25;98745.63;1818309;79;22079;-92
2021/11/14 10:01:16;;;;;;;;;;;;;;;7.69;81.09;98751.44;1805834;78;20447;-94
2021/11/14 10:03:45;;;;;;;;;;;;;;;7.76;81.02;98754.10;1801138;79;25154;-94
2021/11/14 10:06:11;;;;;;;;;;;;;;;7.78;80.97;98760.55;1801724;79;21967;-93
2021/11/14 10:08:47;;;;;;;;;;;;;;;7.80;80.88;98755.61;1799863;79;22982;-94
2021/11/14 10:11:09;;;;;;;;;;;;;;;7.78;80.80;98761.39;1801237;79;24654;-93
2021/11/14 10:13:36;;;;;;;;;;;;;;;7.85;80.71;98759.30;1801719;79;20316;-94
2021/11/14 10:16:10;;;;;;;;;;;;;;;7.90;80.62;98759.44;1781775;79;25073;-93
2021/11/14 10:18:37;;;;;;;;;;;;;;;7.95;80.54;98760.48;1801302;79;21985;-92
2021/11/14 10:21:04;;;;;;;;;;;;;;;7.98;80.41;98764.22;1800971;79;26145;-93
2021/11/14 10:23:32;;;;;;;;;;;;;;;7.97;80.30;98758.62;1800988;79;24604;-92
2021/11/14 10:25:59;;;;;;;;;;;;;;;7.93;80.21;98758.41;1801344;79;20284;-92
2021/11/14 10:28:29;;;;;;;;;;;;;;;7.87;80.11;98760.04;1801875;79;25024;-94
2021/11/14 10:30:55;;;;;;;;;;;;;;;7.81;80.01;98756.00;1782255;79;22141;-94
2021/11/14 10:33:21;;;;;;;;;;;;;;;7.88;79.93;98766.48;1802228;79;25974;-93
2021/11/14 10:35:49;;;;;;;;;;;;;;;7.97;79.85;98766.44;1801981;79;24357;-93
2021/11/14 10:38:17;;;;;;;;;;;;;;;8.02;79.79;98767.52;1802243;79;20227;-94
2021/11/14 10:40:45;;;;;;;;;;;;;;;8.02;79.66;98768.82;1802056;79;25064;-93
2021/11/14 10:43:11;;;;;;;;;;;;;;;8.02;79.55;98768.82;1802089;79;22277;-95
2021/11/14 10:45:40;;;;;;;;;;;;;;;8.02;79.40;98764.42;1801741;79;26984;-95
2021/11/14 10:48:11;;;;;;;;;;;;;;;7.98;79.23;98772.03;1802824;79;25194;-94
2021/11/14 10:50:39;;;;;;;;;;;;;;;7.95;79.09;98770.45;1801563;79;20238;-94
2021/11/14 10:53:06;;;;;;;;;;;;;;;7.93;78.94;98770.98;1801219;79;24933;-96
2021/11/14 10:55:34;;;;;;;;;;;;;;;7.96;78.81;98764.29;1801857;79;21897;-96
2021/11/14 10:58:00;;;;;;;;;;;;;;;7.97;78.72;98765.98;1801561;79;26190;-94
2021/11/14 11:00:28;;;;;;;;;;;;;;;8.04;78.60;98766.50;1802467;78;24641;-94
2021/11/14 11:02:54;;;;;;;;;;;;;;;8.04;78.51;98763.89;1819296;78;20227;-93
2021/11/14 11:05:22;;;;;;;;;;;;;;;8.06;78.42;98772.48;1819770;79;25143;-92
2021/11/14 11:07:55;;;;;;;;;;;;;;;8.04;78.34;98779.98;1819603;79;21980;-94
2021/11/14 11:10:23;;;;;;;;;;;;;;;8.09;78.24;98776.20;1820270;79;25934;-95
2021/11/14 11:12:50;;;;;;;;;;;;;;;8.16;78.19;98779.33;1819824;79;24263;-93
2021/11/14 11:15:16;;;;;;;;;;;;;;;8.15;78.13;98778.94;1819507;79;20248;-95
2021/11/14 11:17:44;;;;;;;;;;;;;;;8.13;78.06;98778.20;1819800;79;25023;-94
2021/11/14 11:20:11;;;;;;;;;;;;;;;8.17;78.00;98777.11;1818224;79;22726;-94
2021/11/14 11:22:47;;;;;;;;;;;;;;;8.26;77.93;98772.68;1819511;79;25867;-94
2021/11/14 11:25:13;;;;;;;;;;;;;;;8.29;77.83;98776.44;1819329;79;25355;-94
2021/11/14 11:27:40;;;;;;;;;;;;;;;8.29;77.69;98769.92;1793211;79;20555;-95
2021/11/14 11:30:06;;;;;;;;;;;;;;;8.34;77.58;98777.06;1819848;79;24983;-94
2021/11/14 11:32:32;;;;;;;;;;;;;;;8.21;77.48;98774.70;1820050;79;21841;-94
2021/11/14 11:34:59;;;;;;;;;;;;;;;8.14;77.35;98772.89;1819990;79;26089;-94
2021/11/14 11:37:25;;;;;;;;;;;;;;;8.19;77.25;98775.23;1819208;79;24410;-94
2021/11/14 11:39:59;;;;;;;;;;;;;;;8.26;77.15;98776.59;1819192;79;20205;-94
2021/11/14 11:42:24;;;;;;;;;;;;;;;8.32;77.04;98777.13;1819314;79;25141;-95
2021/11/14 11:44:55;;;;;;;;;;;;;;;8.34;76.92;98783.58;1819590;79;22105;-95
2021/11/14 11:47:18;;;;;;;;;;;;;;;8.25;76.83;98778.35;1819783;79;26024;-94
2021/11/14 11:49:46;;;;;;;;;;;;;;;8.21;76.77;98778.61;1819929;79;24576;-94
2021/11/14 11:52:18;;;;;;;;;;;;;;;8.12;76.68;98785.18;1819455;79;20472;-95
2021/11/14 11:54:43;;;;;;;;;;;;;;;8.12;76.58;98781.27;1792214;79;25223;-93
2021/11/14 11:57:11;;;;;;;;;;;;;;;8.23;76.54;98787.20;1819468;79;21810;-96
2021/11/14 11:59:42;;;;;;;;;;;;;;;8.25;76.47;98780.96;1818482;79;25993;-94
2021/11/14 12:02:10;;;;;;;;;;;;;;;8.25;76.39;98785.33;1809124;79;24643;-94
2021/11/14 12:04:38;;;;;;;;;;;;;;;8.19;76.28;98780.45;1803126;79;20146;-94
2021/11/14 12:07:05;;;;;;;;;;;;;;;8.22;76.20;98783.75;1801970;79;25044;-95
2021/11/14 12:12:55;;;;;;;;;;;;;;;8.18;75.97;98782.21;1802050;79;23913;-96
2021/11/14 12:15:26;;;;;;;;;;;;;;;8.22;75.84;98782.91;1779835;79;24769;-95
2021/11/14 12:17:53;;;;;;;;;;;;;;;8.33;75.79;98794.92;1801087;79;20210;-94
2021/11/14 12:20:27;;;;;;;;;;;;;;;8.26;75.71;98802.66;1801718;79;24923;-93
2021/11/14 12:22:54;;;;;;;;;;;;;;;8.28;75.64;98806.04;1802527;79;21980;-93
2021/11/14 12:25:34;;;;;;;;;;;;;;;8.32;75.55;98797.15;1801548;79;26082;-94
2021/11/14 12:28:02;;;;;;;;;;;;;;;8.32;75.47;98793.23;1781527;79;24572;-94
2021/11/14 12:30:29;;;;;;;;;;;;;;;8.33;75.40;98804.89;1801154;79;20270;-94
2021/11/14 12:32:56;;;;;;;;;;;;;;;8.27;75.31;98802.59;1800884;79;25164;-94
2021/11/14 12:35:25;;;;;;;;;;;;;;;8.24;75.21;98812.32;1801951;79;22160;-95
2021/11/14 12:37:52;;;;;;;;;;;;;;;8.10;75.11;98809.17;1802125;79;25965;-95
2021/11/14 12:40:22;;;;;;;;;;;;;;;7.98;74.99;98808.06;1802001;79;25280;-93
2021/11/14 12:42:49;;;;;;;;;;;;;;;7.91;74.90;98812.36;1801668;79;20285;-95
2021/11/14 12:45:16;;;;;;;;;;;;;;;7.81;74.78;98809.87;1800505;79;25037;-94
2021/11/14 12:47:45;;;;;;;;;;;;;;;7.75;74.70;98807.58;1801001;79;21696;-95
2021/11/14 12:50:14;;;;;;;;;;;;;;;7.70;74.63;98809.59;1801721;79;25930;-95
2021/11/14 12:52:42;;;;;;;;;;;;;;;7.60;74.54;98807.93;1801754;79;24560;-94
2021/11/14 12:55:10;;;;;;;;;;;;;;;7.47;74.44;98801.69;1801098;79;20519;-95
2021/11/14 12:57:41;;;;;;;;;;;;;;;7.46;74.34;98804.75;1779025;79;25081;-95
2021/11/14 13:00:08;;;;;;;;;;;;;;;7.41;74.28;98805.91;1801483;79;22113;-94
2021/11/14 13:02:34;;;;;;;;;;;;;;;7.36;74.22;98808.75;1812313;78;26805;-96
2021/11/14 13:05:08;;;;;;;;;;;;;;;7.38;74.19;98809.95;1819164;79;20245;-94
2021/11/14 13:07:35;;;;;;;;;;;;;;;7.44;74.18;98808.34;1818432;79;20216;-93
2021/11/14 13:10:02;;;;;;;;;;;;;;;7.48;74.17;98811.16;1820009;79;25293;-94
2021/11/14 13:12:28;;;;;;;;;;;;;;;7.51;74.16;98804.51;1819247;79;22556;-95
2021/11/14 13:14:59;;;;;;;;;;;;;;;7.52;74.13;98807.50;1819920;79;20782;-95
2021/11/14 13:17:28;;;;;;;;;;;;;;;7.50;74.10;98808.03;1819815;79;24402;-94
2021/11/14 13:23:15;;;;;;;;;;;;;;;7.67;74.12;98806.70;1818806;79;21090;-94
2021/11/14 13:25:41;;;;;;;;;;;;;;;7.83;74.16;98802.83;1819695;79;21152;-94
2021/11/14 13:28:07;;;;;;;;;;;;;;;7.97;74.22;98802.46;1792555;79;25962;-94